createdAt,value
2022-11-23T00:04:08.955Z,15.65
2022-11-23T00:09:11.349Z,15.00
2022-11-23T00:14:12.822Z,16.08
2022-11-23T00:19:14.283Z,16.08
2022-11-23T00:24:15.932Z,17.08
2022-11-23T00:29:17.434Z,17.85
2022-11-23T00:34:18.973Z,18.65
2022-11-23T00:39:20.538Z,19.67
2022-11-23T00:44:23.115Z,20.38
2022-11-23T00:49:24.628Z,20.65
2022-11-23T00:54:26.141Z,21.98
2022-11-23T00:59:29.701Z,22.08
2022-11-23T01:04:31.601Z,22.50
2022-11-23T01:09:33.291Z,21.40
2022-11-23T01:14:35.220Z,22.38
2022-11-23T01:19:36.683Z,22.83
2022-11-23T01:24:38.205Z,23.08
2022-11-23T01:29:39.661Z,22.30
2022-11-23T01:34:41.105Z,23.70
2022-11-23T01:39:42.606Z,23.20
2022-11-23T01:44:44.132Z,22.83
2022-11-23T01:49:51.778Z,23.30
2022-11-23T01:54:56.985Z,23.85
2022-11-23T01:59:58.601Z,24.00
2022-11-23T02:05:01.507Z,23.75
2022-11-23T02:10:03.338Z,24.58
2022-11-23T02:15:05.175Z,25.77
2022-11-23T02:20:12.554Z,25.90
2022-11-23T02:25:27.514Z,26.33
2022-11-23T02:30:31.431Z,26.52
2022-11-23T02:35:34.089Z,28.40
2022-11-23T02:40:36.842Z,27.08
2022-11-23T02:45:46.652Z,26.50
2022-11-23T02:50:48.118Z,27.60
2022-11-23T02:55:49.571Z,28.42
2022-11-23T03:00:51.157Z,27.58
2022-11-23T03:05:52.709Z,26.70
2022-11-23T03:10:54.231Z,27.02
2022-11-23T03:15:59.128Z,25.70
2022-11-23T03:21:05.786Z,26.58
2022-11-23T03:26:12.637Z,25.08
2022-11-23T03:31:14.703Z,26.33
2022-11-23T03:36:16.200Z,25.75
2022-11-23T03:41:17.659Z,25.13
2022-11-23T03:46:19.236Z,25.55
2022-11-23T03:51:20.838Z,21.48
2022-11-23T03:56:22.361Z,20.08
2022-11-23T04:01:23.921Z,19.88
2022-11-23T04:06:25.475Z,19.25
2022-11-23T04:11:26.989Z,19.65
2022-11-23T04:16:28.523Z,19.20
2022-11-23T04:21:29.981Z,20.13
2022-11-23T04:26:31.495Z,20.25
2022-11-23T04:31:33.019Z,20.40
2022-11-23T04:36:34.726Z,20.40
2022-11-23T04:41:36.191Z,22.02
2022-11-23T04:46:37.691Z,21.10
2022-11-23T04:51:39.209Z,22.33
2022-11-23T04:56:40.687Z,23.65
2022-11-23T05:01:42.168Z,23.10
2022-11-23T05:06:43.685Z,23.63
2022-11-23T05:11:45.209Z,23.48
2022-11-23T05:16:46.731Z,24.40
2022-11-23T05:21:48.197Z,23.73
2022-11-23T05:26:53.379Z,24.00
2022-11-23T05:31:57.614Z,24.52
2022-11-23T05:36:59.083Z,22.80
2022-11-23T05:42:00.673Z,21.83
2022-11-23T05:47:02.232Z,21.95
2022-11-23T05:52:03.906Z,21.38
2022-11-23T05:57:05.365Z,20.85
2022-11-23T06:02:06.928Z,20.90
2022-11-23T06:07:08.461Z,20.45
2022-11-23T06:12:10.005Z,19.38
2022-11-23T06:17:11.454Z,19.88
2022-11-23T06:22:13.506Z,18.40
2022-11-23T06:27:18.226Z,17.52
2022-11-23T06:32:20.678Z,16.27
2022-11-23T06:37:22.134Z,15.38
2022-11-23T06:42:38.395Z,15.98
2022-11-23T06:47:40.704Z,16.87
2022-11-23T06:52:42.215Z,15.70
2022-11-23T06:57:43.661Z,16.42
2022-11-23T07:02:52.191Z,15.05
2022-11-23T07:07:53.797Z,15.07
2022-11-23T07:12:55.346Z,15.63
2022-11-23T07:17:56.808Z,15.95
2022-11-23T07:23:07.881Z,14.88
2022-11-23T07:28:11.895Z,15.10
2022-11-23T07:33:13.378Z,15.80
2022-11-23T07:38:14.901Z,15.18
2022-11-23T07:43:16.460Z,15.90
2022-11-23T07:48:18.208Z,15.60
2022-11-23T07:53:20.038Z,16.33
2022-11-23T07:58:21.484Z,16.85
2022-11-23T08:03:30.712Z,14.98
2022-11-23T08:08:32.395Z,15.27
2022-11-23T08:13:37.323Z,14.68
2022-11-23T08:18:38.766Z,14.27
2022-11-23T08:23:40.316Z,14.75
2022-11-23T08:28:41.819Z,13.50
2022-11-23T08:33:44.493Z,10.98
2022-11-23T08:38:46.412Z,10.48
2022-11-23T08:43:48.494Z,8.90
2022-11-23T08:48:50.024Z,7.70
2022-11-23T08:53:51.738Z,6.28
2022-11-23T08:58:53.253Z,5.70
2022-11-23T09:03:54.955Z,5.22
2022-11-23T09:08:57.085Z,4.28
2022-11-23T09:13:58.826Z,3.97
2022-11-23T09:19:00.310Z,3.72
2022-11-23T09:24:02.240Z,4.10
2022-11-23T09:29:08.299Z,3.67
2022-11-23T09:34:13.261Z,3.60
2022-11-23T09:39:14.956Z,4.05
2022-11-23T09:44:24.431Z,3.28
2022-11-23T09:49:49.860Z,4.47
2022-11-23T09:54:56.843Z,4.03
2022-11-23T10:00:02.151Z,4.67
2022-11-23T10:05:04.728Z,3.63
2022-11-23T10:10:36.190Z,3.80
2022-11-23T10:16:12.263Z,3.55
2022-11-23T10:21:29.999Z,3.92
2022-11-23T10:26:38.364Z,3.65
2022-11-23T10:31:45.002Z,4.18
2022-11-23T10:36:46.519Z,3.53
2022-11-23T10:41:48.629Z,3.80
2022-11-23T10:46:50.177Z,3.53
2022-11-23T10:51:57.852Z,5.28
2022-11-23T11:02:19.142Z,4.25
2022-11-23T11:07:24.397Z,3.08
2022-11-23T11:12:27.528Z,4.32
2022-11-23T11:17:34.585Z,4.35
2022-11-23T11:22:36.644Z,3.75
2022-11-23T11:27:38.181Z,3.42
2022-11-23T11:32:56.048Z,3.40
2022-11-23T11:38:05.398Z,3.28
2022-11-23T11:43:37.818Z,3.47
2022-11-23T11:48:53.140Z,2.60
2022-11-23T11:54:33.526Z,2.95
2022-11-23T11:59:45.064Z,2.90
2022-11-23T12:04:55.707Z,3.13
2022-11-23T12:10:11.883Z,3.03
2022-11-23T12:20:57.856Z,3.30
2022-11-23T12:26:27.132Z,2.92
2022-11-23T12:31:31.375Z,2.80
2022-11-23T12:36:45.871Z,3.30
2022-11-23T12:42:08.861Z,3.53
2022-11-23T12:47:22.292Z,2.55
2022-11-23T12:52:48.504Z,2.70
2022-11-23T12:58:05.096Z,3.72
2022-11-23T13:03:30.549Z,3.00
2022-11-23T13:09:03.075Z,2.70
2022-11-23T13:14:26.355Z,2.88
2022-11-23T13:19:55.995Z,3.70
2022-11-23T13:25:12.918Z,3.10
2022-11-23T13:36:10.464Z,3.90
2022-11-23T13:41:33.842Z,3.75
2022-11-23T13:46:36.619Z,2.85
2022-11-23T13:51:38.703Z,3.03
2022-11-23T13:56:43.131Z,3.38
2022-11-23T14:02:12.638Z,2.63
2022-11-23T14:07:25.391Z,2.88
2022-11-23T14:12:56.816Z,2.75
2022-11-23T14:18:35.074Z,2.47
2022-11-23T14:23:58.181Z,2.88
2022-11-23T14:29:11.888Z,3.40
2022-11-23T14:34:31.760Z,3.00
2022-11-23T14:40:20.172Z,2.60
2022-11-23T14:45:26.959Z,2.10
2022-11-23T14:50:29.604Z,2.35
2022-11-23T14:55:31.272Z,2.08
2022-11-23T15:00:37.026Z,2.30
2022-11-23T15:05:39.820Z,2.97
2022-11-23T15:11:09.835Z,2.38
2022-11-23T15:16:13.319Z,2.80
2022-11-23T15:21:28.393Z,3.22
2022-11-23T15:32:14.373Z,2.00
2022-11-23T15:37:14.417Z,1.98
2022-11-23T15:42:18.584Z,2.00
2022-11-23T15:47:27.651Z,2.20
2022-11-23T15:52:35.758Z,4.18
2022-11-23T16:02:39.701Z,6.15
2022-11-23T16:08:02.169Z,4.60
2022-11-23T16:13:06.465Z,1.90
2022-11-23T16:18:13.922Z,2.38
2022-11-23T16:23:20.595Z,2.00
2022-11-23T16:28:29.394Z,2.42
2022-11-23T16:33:30.944Z,2.08
2022-11-23T16:38:32.389Z,2.28
2022-11-23T16:43:33.900Z,3.08
2022-11-23T16:48:45.989Z,3.03
2022-11-23T16:54:12.348Z,2.70
2022-11-23T16:59:16.598Z,3.50
2022-11-23T17:04:18.167Z,3.17
2022-11-23T17:09:19.776Z,3.60
2022-11-23T17:14:28.066Z,3.25
2022-11-23T17:19:31.461Z,3.75
2022-11-23T17:24:33.510Z,3.42
2022-11-23T17:29:40.394Z,4.45
2022-11-23T17:34:43.329Z,5.22
2022-11-23T17:39:45.025Z,6.25
2022-11-23T17:44:46.626Z,7.90
2022-11-23T17:49:48.144Z,7.90
2022-11-23T17:54:50.135Z,7.63
2022-11-23T17:59:52.260Z,7.47
2022-11-23T18:04:53.887Z,9.00
2022-11-23T18:09:56.149Z,9.93
2022-11-23T18:14:57.767Z,10.77
2022-11-23T18:19:59.305Z,11.00
2022-11-23T18:25:00.814Z,9.65
2022-11-23T18:30:02.374Z,10.20
2022-11-23T18:35:05.094Z,11.95
2022-11-23T18:40:07.011Z,11.80
2022-11-23T18:45:08.782Z,12.98
2022-11-23T18:50:10.319Z,13.93
2022-11-23T18:55:12.035Z,13.07
2022-11-23T19:00:15.863Z,12.38
2022-11-23T19:05:17.529Z,12.18
2022-11-23T19:10:19.734Z,12.23
2022-11-23T19:15:21.304Z,11.93
2022-11-23T19:20:23.701Z,11.68
2022-11-23T19:25:25.197Z,13.10
2022-11-23T19:30:27.346Z,12.15
2022-11-23T19:35:28.840Z,11.43
2022-11-23T19:40:30.311Z,11.38
2022-11-23T19:45:31.766Z,13.00
2022-11-23T19:50:33.236Z,10.73
2022-11-23T19:55:34.695Z,10.50
2022-11-23T20:00:37.053Z,11.73
2022-11-23T20:05:38.753Z,11.45
2022-11-23T20:10:40.253Z,10.60
2022-11-23T20:15:43.865Z,11.40
2022-11-23T20:20:47.580Z,10.38
2022-11-23T20:25:49.149Z,9.48
2022-11-23T20:30:51.025Z,11.73
2022-11-23T20:35:52.669Z,10.50
2022-11-23T20:40:54.182Z,10.60
2022-11-23T20:45:58.361Z,10.35
2022-11-23T20:50:59.900Z,10.82
2022-11-23T20:56:10.631Z,10.55
2022-11-23T21:01:14.844Z,10.02
2022-11-23T21:06:16.594Z,9.85
2022-11-23T21:11:36.586Z,8.95
2022-11-23T21:16:58.948Z,9.13
2022-11-23T21:22:09.218Z,8.15
2022-11-23T21:27:13.301Z,8.23
2022-11-23T21:32:14.838Z,8.73
2022-11-23T21:37:16.457Z,9.27
2022-11-23T21:42:17.993Z,8.35
2022-11-23T21:47:19.632Z,9.80
2022-11-23T21:52:21.151Z,8.60
2022-11-23T21:57:22.664Z,7.32
2022-11-23T22:02:24.233Z,7.55
2022-11-23T22:07:25.798Z,6.82
2022-11-23T22:12:27.405Z,6.03
2022-11-23T22:17:28.894Z,5.70
2022-11-23T22:22:30.423Z,6.47
2022-11-23T22:27:32.035Z,6.00
2022-11-23T22:32:33.540Z,7.32
2022-11-23T22:37:35.035Z,7.22
2022-11-23T22:42:36.536Z,7.28
2022-11-23T22:47:38.213Z,7.55
2022-11-23T22:52:39.702Z,7.65
2022-11-23T22:57:41.186Z,6.97
2022-11-23T23:02:42.769Z,7.30
2022-11-23T23:07:44.449Z,7.22
2022-11-23T23:12:46.021Z,8.18
2022-11-23T23:17:47.737Z,8.68
2022-11-23T23:22:49.282Z,7.47
2022-11-23T23:27:50.793Z,6.90
2022-11-23T23:32:54.416Z,7.25
2022-11-23T23:37:55.908Z,7.07
2022-11-23T23:43:00.468Z,7.40
2022-11-23T23:48:01.967Z,7.65
2022-11-23T23:53:03.472Z,6.28
2022-11-23T23:58:04.962Z,6.60
